sensor_id;sensor_type;location;lat;lon;timestamp;pressure;altitude;pressure_sealevel;temperature;humidity
28428;BME280;15662;49.128;8.520;2023-03-22T00:02:13;100259.91;;;15.70;44.85
28428;BME280;15662;49.128;8.520;2023-03-22T00:04:46;100261.50;;;15.74;44.78
28428;BME280;15662;49.128;8.520;2023-03-22T00:07:14;100254.53;;;15.72;44.78
28428;BME280;15662;49.128;8.520;2023-03-22T00:09:42;100260.56;;;15.76;44.76
28428;BME280;15662;49.128;8.520;2023-03-22T00:12:10;100262.38;;;15.75;44.72
28428;BME280;15662;49.128;8.520;2023-03-22T00:14:38;100266.00;;;15.74;44.75
28428;BME280;15662;49.128;8.520;2023-03-22T00:17:06;100258.91;;;15.73;44.82
28428;BME280;15662;49.128;8.520;2023-03-22T00:19:34;100259.00;;;15.71;44.81
28428;BME280;15662;49.128;8.520;2023-03-22T00:22:02;100257.47;;;15.66;44.77
28428;BME280;15662;49.128;8.520;2023-03-22T00:24:30;100254.97;;;15.61;44.70
28428;BME280;15662;49.128;8.520;2023-03-22T00:26:58;100264.13;;;15.57;44.89
28428;BME280;15662;49.128;8.520;2023-03-22T00:29:28;100253.88;;;15.48;44.73
28428;BME280;15662;49.128;8.520;2023-03-22T00:31:56;100245.13;;;15.44;44.79
28428;BME280;15662;49.128;8.520;2023-03-22T00:34:24;100247.16;;;15.39;44.98
28428;BME280;15662;49.128;8.520;2023-03-22T00:36:53;100244.78;;;15.33;45.07
28428;BME280;15662;49.128;8.520;2023-03-22T00:39:22;100249.38;;;15.30;45.17
28428;BME280;15662;49.128;8.520;2023-03-22T00:41:50;100243.19;;;15.29;45.12
28428;BME280;15662;49.128;8.520;2023-03-22T00:44:19;100238.78;;;15.28;45.21
28428;BME280;15662;49.128;8.520;2023-03-22T00:46:47;100236.25;;;15.25;45.29
28428;BME280;15662;49.128;8.520;2023-03-22T00:49:15;100231.63;;;15.29;45.28
28428;BME280;15662;49.128;8.520;2023-03-22T00:51:43;100224.41;;;15.31;45.41
28428;BME280;15662;49.128;8.520;2023-03-22T00:54:11;100222.47;;;15.34;45.51
28428;BME280;15662;49.128;8.520;2023-03-22T00:56:42;100226.84;;;15.35;45.53
28428;BME280;15662;49.128;8.520;2023-03-22T00:59:15;100217.22;;;15.33;45.56
28428;BME280;15662;49.128;8.520;2023-03-22T01:01:43;100215.44;;;15.32;45.60
28428;BME280;15662;49.128;8.520;2023-03-22T01:04:11;100213.72;;;15.31;45.51
28428;BME280;15662;49.128;8.520;2023-03-22T01:06:44;100215.75;;;15.26;45.44
28428;BME280;15662;49.128;8.520;2023-03-22T01:09:13;100217.78;;;15.20;45.57
28428;BME280;15662;49.128;8.520;2023-03-22T01:11:42;100214.38;;;15.17;45.41
28428;BME280;15662;49.128;8.520;2023-03-22T01:14:10;100210.16;;;15.13;45.65
28428;BME280;15662;49.128;8.520;2023-03-22T01:16:40;100208.59;;;15.07;45.68
28428;BME280;15662;49.128;8.520;2023-03-22T01:19:08;100209.50;;;15.08;45.67
28428;BME280;15662;49.128;8.520;2023-03-22T01:21:36;100197.22;;;15.04;45.62
28428;BME280;15662;49.128;8.520;2023-03-22T01:24:05;100197.44;;;14.99;45.64
28428;BME280;15662;49.128;8.520;2023-03-22T01:26:33;100197.66;;;14.94;45.59
28428;BME280;15662;49.128;8.520;2023-03-22T01:29:03;100192.38;;;14.93;45.70
28428;BME280;15662;49.128;8.520;2023-03-22T01:31:31;100187.19;;;14.90;45.61
28428;BME280;15662;49.128;8.520;2023-03-22T01:33:59;100183.66;;;14.89;45.75
28428;BME280;15662;49.128;8.520;2023-03-22T01:36:28;100186.44;;;14.86;45.87
28428;BME280;15662;49.128;8.520;2023-03-22T01:38:56;100187.47;;;14.84;45.64
28428;BME280;15662;49.128;8.520;2023-03-22T01:41:24;100184.81;;;14.84;45.65
28428;BME280;15662;49.128;8.520;2023-03-22T01:44:28;100182.28;;;14.81;45.81
28428;BME280;15662;49.128;8.520;2023-03-22T01:46:57;100184.00;;;14.82;45.92
28428;BME280;15662;49.128;8.520;2023-03-22T01:49:31;100185.66;;;14.84;45.90
28428;BME280;15662;49.128;8.520;2023-03-22T01:52:06;100181.28;;;14.83;45.83
28428;BME280;15662;49.128;8.520;2023-03-22T01:54:51;100177.97;;;14.78;45.86
28428;BME280;15662;49.128;8.520;2023-03-22T01:57:32;100176.28;;;14.76;45.89
28428;BME280;15662;49.128;8.520;2023-03-22T02:00:10;100174.69;;;14.71;45.92
28428;BME280;15662;49.128;8.520;2023-03-22T02:02:59;100174.03;;;14.66;45.87
28428;BME280;15662;49.128;8.520;2023-03-22T02:05:35;100178.59;;;14.64;45.94
28428;BME280;15662;49.128;8.520;2023-03-22T02:08:04;100174.97;;;14.65;45.98
28428;BME280;15662;49.128;8.520;2023-03-22T02:10:50;100175.06;;;14.64;46.07
28428;BME280;15662;49.128;8.520;2023-03-22T02:13:54;100176.84;;;14.63;46.12
28428;BME280;15662;49.128;8.520;2023-03-22T02:20:21;100176.13;;;14.60;46.08
28428;BME280;15662;49.128;8.520;2023-03-22T02:33:28;100180.72;;;14.56;46.45
28428;BME280;15662;49.128;8.520;2023-03-22T02:36:04;100183.38;;;14.56;46.49
28428;BME280;15662;49.128;8.520;2023-03-22T02:47:53;100175.91;;;14.64;46.63
28428;BME280;15662;49.128;8.520;2023-03-22T02:50:45;100165.16;;;14.66;46.48
28428;BME280;15662;49.128;8.520;2023-03-22T02:58:42;100163.66;;;14.60;46.81
28428;BME280;15662;49.128;8.520;2023-03-22T03:01:29;100160.91;;;14.62;46.63
28428;BME280;15662;49.128;8.520;2023-03-22T03:04:00;100157.56;;;14.57;46.76
28428;BME280;15662;49.128;8.520;2023-03-22T03:06:35;100157.56;;;14.57;46.67
28428;BME280;15662;49.128;8.520;2023-03-22T03:09:07;100154.22;;;14.53;46.74
28428;BME280;15662;49.128;8.520;2023-03-22T03:11:35;100147.00;;;14.55;46.91
28428;BME280;15662;49.128;8.520;2023-03-22T03:14:04;100165.53;;;14.58;47.04
28428;BME280;15662;49.128;8.520;2023-03-22T03:16:33;100144.25;;;14.57;47.01
28428;BME280;15662;49.128;8.520;2023-03-22T03:19:16;100159.03;;;14.64;46.96
28428;BME280;15662;49.128;8.520;2023-03-22T03:24:38;100146.41;;;14.67;47.32
28428;BME280;15662;49.128;8.520;2023-03-22T03:27:15;100147.34;;;14.66;47.19
28428;BME280;15662;49.128;8.520;2023-03-22T03:32:33;100155.06;;;14.73;47.12
28428;BME280;15662;49.128;8.520;2023-03-22T03:35:38;100150.97;;;14.65;47.07
28428;BME280;15662;49.128;8.520;2023-03-22T03:38:18;100138.63;;;14.63;46.84
28428;BME280;15662;49.128;8.520;2023-03-22T03:40:53;100140.41;;;14.62;46.89
28428;BME280;15662;49.128;8.520;2023-03-22T03:43:22;100138.03;;;14.56;47.00
28428;BME280;15662;49.128;8.520;2023-03-22T03:45:53;100132.72;;;14.56;46.98
28428;BME280;15662;49.128;8.520;2023-03-22T03:48:29;100127.75;;;14.49;47.04
28428;BME280;15662;49.128;8.520;2023-03-22T03:50:59;100143.84;;;14.45;46.97
28428;BME280;15662;49.128;8.520;2023-03-22T03:53:29;100146.84;;;14.38;47.23
28428;BME280;15662;49.128;8.520;2023-03-22T03:55:57;100156.06;;;14.31;47.05
28428;BME280;15662;49.128;8.520;2023-03-22T03:58:28;100154.63;;;14.24;47.08
28428;BME280;15662;49.128;8.520;2023-03-22T04:00:57;100155.59;;;14.21;47.10
28428;BME280;15662;49.128;8.520;2023-03-22T04:03:25;100149.59;;;14.16;47.09
28428;BME280;15662;49.128;8.520;2023-03-22T04:06:16;100152.47;;;14.11;47.39
28428;BME280;15662;49.128;8.520;2023-03-22T04:08:48;100147.25;;;14.08;47.26
28428;BME280;15662;49.128;8.520;2023-03-22T04:11:23;100145.69;;;14.04;47.42
28428;BME280;15662;49.128;8.520;2023-03-22T04:13:55;100156.28;;;14.06;47.36
28428;BME280;15662;49.128;8.520;2023-03-22T04:16:23;100132.50;;;14.01;47.37
28428;BME280;15662;49.128;8.520;2023-03-22T04:18:51;100151.88;;;14.05;47.43
28428;BME280;15662;49.128;8.520;2023-03-22T04:21:19;100149.22;;;14.05;47.46
28428;BME280;15662;49.128;8.520;2023-03-22T04:23:59;100144.75;;;14.05;47.48
28428;BME280;15662;49.128;8.520;2023-03-22T04:26:32;100136.88;;;14.02;47.33
28428;BME280;15662;49.128;8.520;2023-03-22T04:29:35;100138.59;;;14.03;47.49
28428;BME280;15662;49.128;8.520;2023-03-22T04:32:24;100131.47;;;14.04;47.41
28428;BME280;15662;49.128;8.520;2023-03-22T04:34:54;100126.09;;;14.05;47.45
28428;BME280;15662;49.128;8.520;2023-03-22T04:37:22;100124.22;;;14.07;47.44
28428;BME280;15662;49.128;8.520;2023-03-22T04:40:10;100131.34;;;14.07;47.33
28428;BME280;15662;49.128;8.520;2023-03-22T04:42:55;100128.81;;;14.04;47.48
28428;BME280;15662;49.128;8.520;2023-03-22T04:45:49;100126.97;;;14.06;47.45
28428;BME280;15662;49.128;8.520;2023-03-22T04:48:22;100127.75;;;14.08;47.21
28428;BME280;15662;49.128;8.520;2023-03-22T04:50:56;100128.59;;;14.08;47.43
28428;BME280;15662;49.128;8.520;2023-03-22T04:53:26;100121.75;;;14.03;47.61
28428;BME280;15662;49.128;8.520;2023-03-22T04:55:59;100130.47;;;14.06;47.60
28428;BME280;15662;49.128;8.520;2023-03-22T04:58:30;100125.34;;;14.02;47.52
28428;BME280;15662;49.128;8.520;2023-03-22T05:00:58;100125.34;;;14.02;47.51
28428;BME280;15662;49.128;8.520;2023-03-22T05:03:26;100120.88;;;14.02;47.67
28428;BME280;15662;49.128;8.520;2023-03-22T05:05:57;100129.69;;;14.04;47.74
28428;BME280;15662;49.128;8.520;2023-03-22T05:08:34;100117.75;;;13.92;47.98
28428;BME280;15662;49.128;8.520;2023-03-22T05:11:14;100125.72;;;13.94;47.88
28428;BME280;15662;49.128;8.520;2023-03-22T05:14:13;100125.28;;;13.83;47.85
28428;BME280;15662;49.128;8.520;2023-03-22T05:16:42;100125.28;;;13.83;47.87
28428;BME280;15662;49.128;8.520;2023-03-22T05:19:10;100122.88;;;13.77;47.91
28428;BME280;15662;49.128;8.520;2023-03-22T05:21:45;100124.88;;;13.72;47.82
28428;BME280;15662;49.128;8.520;2023-03-22T05:24:14;100130.66;;;13.61;47.78
28428;BME280;15662;49.128;8.520;2023-03-22T05:26:46;100136.19;;;13.56;47.84
28428;BME280;15662;49.128;8.520;2023-03-22T05:29:22;100129.38;;;13.49;47.81
28428;BME280;15662;49.128;8.520;2023-03-22T05:32:13;100131.31;;;13.46;47.90
28428;BME280;15662;49.128;8.520;2023-03-22T05:34:41;100144.28;;;13.53;47.88
28428;BME280;15662;49.128;8.520;2023-03-22T05:37:31;100126.59;;;13.52;47.76
28428;BME280;15662;49.128;8.520;2023-03-22T05:39:59;100140.56;;;13.57;47.66
28428;BME280;15662;49.128;8.520;2023-03-22T05:42:41;100136.38;;;13.52;47.73
28428;BME280;15662;49.128;8.520;2023-03-22T05:45:17;100129.81;;;13.38;47.94
28428;BME280;15662;49.128;8.520;2023-03-22T05:47:49;100135.41;;;13.32;47.74
28428;BME280;15662;49.128;8.520;2023-03-22T05:50:22;100121.59;;;13.23;47.85
28428;BME280;15662;49.128;8.520;2023-03-22T05:52:52;100140.31;;;13.20;47.94
28428;BME280;15662;49.128;8.520;2023-03-22T05:55:20;100128.75;;;13.21;48.18
28428;BME280;15662;49.128;8.520;2023-03-22T05:57:53;100136.59;;;13.25;48.39
28428;BME280;15662;49.128;8.520;2023-03-22T06:00:24;100143.44;;;13.31;48.20
28428;BME280;15662;49.128;8.520;2023-03-22T06:03:14;100140.53;;;13.37;48.34
28428;BME280;15662;49.128;8.520;2023-03-22T06:05:48;100139.34;;;13.44;48.38
28428;BME280;15662;49.128;8.520;2023-03-22T06:08:22;100146.09;;;13.53;48.25
28428;BME280;15662;49.128;8.520;2023-03-22T06:10:54;100145.91;;;13.57;48.54
28428;BME280;15662;49.128;8.520;2023-03-22T06:13:21;100150.09;;;13.63;48.49
28428;BME280;15662;49.128;8.520;2023-03-22T06:15:50;100148.94;;;13.70;48.66
28428;BME280;15662;49.128;8.520;2023-03-22T06:18:24;100142.59;;;13.73;48.69
28428;BME280;15662;49.128;8.520;2023-03-22T06:20:59;100151.91;;;13.83;48.72
28428;BME280;15662;49.128;8.520;2023-03-22T06:23:29;100148.13;;;13.88;48.99
28428;BME280;15662;49.128;8.520;2023-03-22T06:25:57;100140.94;;;13.90;49.02
28428;BME280;15662;49.128;8.520;2023-03-22T06:28:25;100152.06;;;14.00;49.10
28428;BME280;15662;49.128;8.520;2023-03-22T06:30:56;100148.34;;;14.04;49.13
28428;BME280;15662;49.128;8.520;2023-03-22T06:33:31;100148.09;;;14.10;49.02
28428;BME280;15662;49.128;8.520;2023-03-22T06:36:05;100152.19;;;14.17;49.17
28428;BME280;15662;49.128;8.520;2023-03-22T06:38:42;100163.41;;;14.26;49.10
28428;BME280;15662;49.128;8.520;2023-03-22T06:41:10;100149.72;;;14.33;49.08
28428;BME280;15662;49.128;8.520;2023-03-22T06:43:38;100131.84;;;14.35;49.00
28428;BME280;15662;49.128;8.520;2023-03-22T06:46:19;100146.50;;;14.45;49.00
28428;BME280;15662;49.128;8.520;2023-03-22T06:48:58;100143.59;;;14.52;49.02
28428;BME280;15662;49.128;8.520;2023-03-22T06:51:27;100158.19;;;14.63;49.05
28428;BME280;15662;49.128;8.520;2023-03-22T06:53:56;100149.81;;;14.71;48.86
28428;BME280;15662;49.128;8.520;2023-03-22T06:56:25;100153.94;;;14.78;49.03
28428;BME280;15662;49.128;8.520;2023-03-22T06:58:54;100158.91;;;14.86;48.94
28428;BME280;15662;49.128;8.520;2023-03-22T07:01:24;100157.69;;;14.93;48.91
28428;BME280;15662;49.128;8.520;2023-03-22T07:03:53;100160.94;;;15.00;48.89
28428;BME280;15662;49.128;8.520;2023-03-22T07:06:22;100166.78;;;15.08;48.76
28428;BME280;15662;49.128;8.520;2023-03-22T07:08:51;100178.97;;;15.13;48.81
28428;BME280;15662;49.128;8.520;2023-03-22T07:11:25;100171.59;;;15.18;48.78
28428;BME280;15662;49.128;8.520;2023-03-22T07:13:58;100167.84;;;15.22;48.81
28428;BME280;15662;49.128;8.520;2023-03-22T07:16:34;100167.38;;;15.32;48.73
28428;BME280;15662;49.128;8.520;2023-03-22T07:19:03;100158.16;;;15.39;48.64
28428;BME280;15662;49.128;8.520;2023-03-22T07:21:33;100161.47;;;15.44;48.67
28428;BME280;15662;49.128;8.520;2023-03-22T07:24:07;100166.34;;;15.53;48.63
28428;BME280;15662;49.128;8.520;2023-03-22T07:26:37;100156.41;;;15.57;48.63
28428;BME280;15662;49.128;8.520;2023-03-22T07:29:05;100156.88;;;15.65;48.46
28428;BME280;15662;49.128;8.520;2023-03-22T07:31:34;100166.16;;;15.75;48.47
28428;BME280;15662;49.128;8.520;2023-03-22T07:34:10;100156.28;;;15.77;48.51
28428;BME280;15662;49.128;8.520;2023-03-22T07:36:54;100157.69;;;15.84;48.42
28428;BME280;15662;49.128;8.520;2023-03-22T07:39:24;100153.84;;;15.90;48.44
28428;BME280;15662;49.128;8.520;2023-03-22T07:41:52;100154.31;;;15.98;48.39
28428;BME280;15662;49.128;8.520;2023-03-22T07:44:23;100154.81;;;16.06;48.49
28428;BME280;15662;49.128;8.520;2023-03-22T07:47:10;100159.81;;;16.12;48.30
28428;BME280;15662;49.128;8.520;2023-03-22T07:49:51;100158.47;;;16.21;48.46
28428;BME280;15662;49.128;8.520;2023-03-22T07:52:24;100155.47;;;16.27;48.52
28428;BME280;15662;49.128;8.520;2023-03-22T07:54:52;100159.25;;;16.40;48.41
28428;BME280;15662;49.128;8.520;2023-03-22T07:57:20;100156.16;;;16.48;48.51
28428;BME280;15662;49.128;8.520;2023-03-22T07:59:54;100151.88;;;16.61;48.40
28428;BME280;15662;49.128;8.520;2023-03-22T08:02:26;100151.06;;;16.76;48.57
28428;BME280;15662;49.128;8.520;2023-03-22T08:04:57;100152.19;;;16.88;48.42
28428;BME280;15662;49.128;8.520;2023-03-22T08:07:41;100145.38;;;16.98;48.40
28428;BME280;15662;49.128;8.520;2023-03-22T08:10:11;100150.22;;;17.08;47.97
28428;BME280;15662;49.128;8.520;2023-03-22T08:12:41;100142.78;;;17.13;47.75
28428;BME280;15662;49.128;8.520;2023-03-22T08:15:22;100145.72;;;17.24;47.87
28428;BME280;15662;49.128;8.520;2023-03-22T08:17:53;100152.31;;;17.34;47.75
28428;BME280;15662;49.128;8.520;2023-03-22T08:20:38;100147.28;;;17.44;47.73
28428;BME280;15662;49.128;8.520;2023-03-22T08:23:14;100140.59;;;17.51;47.50
28428;BME280;15662;49.128;8.520;2023-03-22T08:25:48;100136.34;;;17.63;47.26
28428;BME280;15662;49.128;8.520;2023-03-22T08:28:17;100137.38;;;17.76;47.23
28428;BME280;15662;49.128;8.520;2023-03-22T08:30:50;100132.44;;;17.84;46.84
28428;BME280;15662;49.128;8.520;2023-03-22T08:33:18;100134.66;;;17.92;47.08
28428;BME280;15662;49.128;8.520;2023-03-22T08:35:49;100131.31;;;18.02;46.92
28428;BME280;15662;49.128;8.520;2023-03-22T08:38:18;100134.50;;;18.09;46.51
28428;BME280;15662;49.128;8.520;2023-03-22T08:40:50;100135.00;;;18.16;46.19
28428;BME280;15662;49.128;8.520;2023-03-22T08:43:21;100139.81;;;18.25;46.24
28428;BME280;15662;49.128;8.520;2023-03-22T08:45:51;100135.78;;;18.32;45.84
28428;BME280;15662;49.128;8.520;2023-03-22T08:48:21;100121.22;;;18.36;45.82
28428;BME280;15662;49.128;8.520;2023-03-22T08:51:07;100127.16;;;18.55;46.11
28428;BME280;15662;49.128;8.520;2023-03-22T08:53:49;100122.38;;;18.61;45.69
28428;BME280;15662;49.128;8.520;2023-03-22T08:56:39;100128.56;;;18.77;45.11
28428;BME280;15662;49.128;8.520;2023-03-22T08:59:24;100132.16;;;18.90;45.40
28428;BME280;15662;49.128;8.520;2023-03-22T09:02:19;100127.72;;;19.03;45.16
28428;BME280;15662;49.128;8.520;2023-03-22T09:04:47;100125.88;;;19.18;45.14
28428;BME280;15662;49.128;8.520;2023-03-22T09:07:16;100117.66;;;19.34;45.01
28428;BME280;15662;49.128;8.520;2023-03-22T09:09:51;100114.38;;;19.43;44.68
28428;BME280;15662;49.128;8.520;2023-03-22T09:12:24;100110.28;;;19.50;44.12
28428;BME280;15662;49.128;8.520;2023-03-22T09:14:52;100116.22;;;19.55;44.06
28428;BME280;15662;49.128;8.520;2023-03-22T09:17:26;100102.59;;;19.58;43.81
28428;BME280;15662;49.128;8.520;2023-03-22T09:19:54;100094.25;;;19.63;43.78
28428;BME280;15662;49.128;8.520;2023-03-22T09:22:42;100092.53;;;19.62;43.35
28428;BME280;15662;49.128;8.520;2023-03-22T09:25:14;100090.50;;;19.66;43.28
28428;BME280;15662;49.128;8.520;2023-03-22T09:27:46;100094.91;;;19.67;42.98
28428;BME280;15662;49.128;8.520;2023-03-22T09:30:19;100099.31;;;19.68;42.86
28428;BME280;15662;49.128;8.520;2023-03-22T09:32:50;100092.97;;;19.69;43.01
28428;BME280;15662;49.128;8.520;2023-03-22T09:35:19;100088.25;;;19.72;42.97
28428;BME280;15662;49.128;8.520;2023-03-22T09:37:56;100086.97;;;19.78;42.42
28428;BME280;15662;49.128;8.520;2023-03-22T09:40:29;100080.09;;;19.87;42.53
28428;BME280;15662;49.128;8.520;2023-03-22T09:43:02;100083.22;;;19.93;42.58
28428;BME280;15662;49.128;8.520;2023-03-22T09:45:40;100091.72;;;20.00;42.07
28428;BME280;15662;49.128;8.520;2023-03-22T09:48:32;100085.16;;;20.04;42.04
28428;BME280;15662;49.128;8.520;2023-03-22T09:51:11;100080.31;;;20.09;42.33
28428;BME280;15662;49.128;8.520;2023-03-22T09:53:43;100077.44;;;20.12;41.92
28428;BME280;15662;49.128;8.520;2023-03-22T09:56:23;100074.22;;;20.20;41.37
28428;BME280;15662;49.128;8.520;2023-03-22T09:59:21;100073.97;;;20.23;41.64
28428;BME280;15662;49.128;8.520;2023-03-22T10:01:58;100074.63;;;20.26;41.29
28428;BME280;15662;49.128;8.520;2023-03-22T10:10:20;100065.34;;;20.43;41.61
28428;BME280;15662;49.128;8.520;2023-03-22T10:16:17;100064.19;;;20.60;40.83
28428;BME280;15662;49.128;8.520;2023-03-22T10:18:51;100069.44;;;20.61;41.08
28428;BME280;15662;49.128;8.520;2023-03-22T10:21:23;100056.38;;;20.68;41.04
28428;BME280;15662;49.128;8.520;2023-03-22T10:24:27;100044.22;;;20.75;41.14
28428;BME280;15662;49.128;8.520;2023-03-22T10:26:56;100059.28;;;20.78;41.07
28428;BME280;15662;49.128;8.520;2023-03-22T10:29:58;100045.25;;;20.85;40.46
28428;BME280;15662;49.128;8.520;2023-03-22T10:32:51;100031.66;;;20.87;40.33
28428;BME280;15662;49.128;8.520;2023-03-22T10:35:25;100045.56;;;20.94;40.61
28428;BME280;15662;49.128;8.520;2023-03-22T10:37:55;100039.72;;;21.00;40.06
28428;BME280;15662;49.128;8.520;2023-03-22T10:40:32;100036.69;;;21.04;39.89
28428;BME280;15662;49.128;8.520;2023-03-22T10:43:21;100040.63;;;21.11;39.96
28428;BME280;15662;49.128;8.520;2023-03-22T10:45:55;100036.72;;;21.16;39.84
28428;BME280;15662;49.128;8.520;2023-03-22T10:48:34;100029.50;;;21.16;39.62
28428;BME280;15662;49.128;8.520;2023-03-22T10:51:03;100041.91;;;21.19;39.67
28428;BME280;15662;49.128;8.520;2023-03-22T10:53:42;100028.16;;;21.22;39.50
28428;BME280;15662;49.128;8.520;2023-03-22T10:56:18;100020.22;;;21.20;39.33
28428;BME280;15662;49.128;8.520;2023-03-22T10:58:48;100021.94;;;21.21;39.25
28428;BME280;15662;49.128;8.520;2023-03-22T11:01:30;100030.31;;;21.29;39.12
28428;BME280;15662;49.128;8.520;2023-03-22T11:06:31;100015.88;;;21.30;39.11
28428;BME280;15662;49.128;8.520;2023-03-22T11:09:20;100013.69;;;21.35;38.62
28428;BME280;15662;49.128;8.520;2023-03-22T11:11:56;100008.44;;;21.34;38.79
28428;BME280;15662;49.128;8.520;2023-03-22T11:14:41;100009.28;;;21.34;38.67
28428;BME280;15662;49.128;8.520;2023-03-22T11:17:19;100013.56;;;21.37;38.54
28428;BME280;15662;49.128;8.520;2023-03-22T11:20:00;100007.56;;;21.33;38.61
28428;BME280;15662;49.128;8.520;2023-03-22T11:22:38;100013.47;;;21.38;38.69
28428;BME280;15662;49.128;8.520;2023-03-22T11:25:25;100005.25;;;21.40;38.57
28428;BME280;15662;49.128;8.520;2023-03-22T11:30:40;100007.38;;;21.48;38.55
28428;BME280;15662;49.128;8.520;2023-03-22T11:33:19;100011.94;;;21.58;38.14
28428;BME280;15662;49.128;8.520;2023-03-22T11:36:02;100007.16;;;21.62;38.09
28428;BME280;15662;49.128;8.520;2023-03-22T11:38:39;100008.03;;;21.62;37.92
28428;BME280;15662;49.128;8.520;2023-03-22T11:41:26;100002.88;;;21.71;38.00
28428;BME280;15662;49.128;8.520;2023-03-22T11:43:57;99994.78;;;21.71;38.04
28428;BME280;15662;49.128;8.520;2023-03-22T11:46:29;99992.59;;;21.76;38.14
28428;BME280;15662;49.128;8.520;2023-03-22T11:49:02;99984.91;;;21.82;37.88
28428;BME280;15662;49.128;8.520;2023-03-22T11:51:37;99990.78;;;21.87;37.68
28428;BME280;15662;49.128;8.520;2023-03-22T11:54:26;99986.75;;;21.93;37.60
28428;BME280;15662;49.128;8.520;2023-03-22T11:57:01;99977.03;;;21.90;37.82
28428;BME280;15662;49.128;8.520;2023-03-22T11:59:38;99981.09;;;21.96;37.19
28428;BME280;15662;49.128;8.520;2023-03-22T12:02:34;99977.31;;;21.99;37.33
28428;BME280;15662;49.128;8.520;2023-03-22T12:05:20;99987.09;;;22.00;37.66
28428;BME280;15662;49.128;8.520;2023-03-22T12:08:00;99978.78;;;22.03;37.50
28428;BME280;15662;49.128;8.520;2023-03-22T12:10:41;99972.16;;;22.07;37.52
28428;BME280;15662;49.128;8.520;2023-03-22T12:16:05;99969.97;;;22.12;37.58
28428;BME280;15662;49.128;8.520;2023-03-22T12:19:11;99954.16;;;22.19;37.12
28428;BME280;15662;49.128;8.520;2023-03-22T12:21:40;99969.13;;;22.23;37.09
28428;BME280;15662;49.128;8.520;2023-03-22T12:24:26;99954.25;;;22.28;36.58
28428;BME280;15662;49.128;8.520;2023-03-22T12:27:03;99953.13;;;22.31;36.74
28428;BME280;15662;49.128;8.520;2023-03-22T12:29:46;99947.50;;;22.34;36.84
28428;BME280;15662;49.128;8.520;2023-03-22T12:32:27;99952.66;;;22.37;36.64
28428;BME280;15662;49.128;8.520;2023-03-22T12:35:05;99939.16;;;22.37;36.47
28428;BME280;15662;49.128;8.520;2023-03-22T12:37:49;99936.56;;;22.35;36.30
28428;BME280;15662;49.128;8.520;2023-03-22T12:40:31;99939.75;;;22.40;36.15
28428;BME280;15662;49.128;8.520;2023-03-22T12:45:45;99920.84;;;22.40;36.03
28428;BME280;15662;49.128;8.520;2023-03-22T12:48:22;99912.03;;;22.38;36.27
28428;BME280;15662;49.128;8.520;2023-03-22T12:50:59;99921.22;;;22.47;36.07
28428;BME280;15662;49.128;8.520;2023-03-22T12:53:43;99915.69;;;22.49;35.87
28428;BME280;15662;49.128;8.520;2023-03-22T12:56:53;99905.13;;;22.57;35.41
28428;BME280;15662;49.128;8.520;2023-03-22T12:59:29;99895.28;;;22.56;36.01
28428;BME280;15662;49.128;8.520;2023-03-22T13:04:59;99899.53;;;22.70;35.64
28428;BME280;15662;49.128;8.520;2023-03-22T13:29:34;99865.00;;;22.73;34.60
28428;BME280;15662;49.128;8.520;2023-03-22T13:32:28;99856.06;;;22.73;35.01
28428;BME280;15662;49.128;8.520;2023-03-22T13:34:59;99862.19;;;22.75;35.19
28428;BME280;15662;49.128;8.520;2023-03-22T13:37:50;99861.53;;;22.82;34.67
28428;BME280;15662;49.128;8.520;2023-03-22T13:40:32;99855.63;;;22.88;35.00
28428;BME280;15662;49.128;8.520;2023-03-22T13:43:22;99854.41;;;22.92;35.01
28428;BME280;15662;49.128;8.520;2023-03-22T13:49:11;99844.91;;;22.98;34.95
28428;BME280;15662;49.128;8.520;2023-03-22T13:51:44;99847.47;;;23.00;34.93
28428;BME280;15662;49.128;8.520;2023-03-22T13:59:56;99833.91;;;23.11;34.58
28428;BME280;15662;49.128;8.520;2023-03-22T14:02:39;99833.06;;;23.10;34.81
28428;BME280;15662;49.128;8.520;2023-03-22T14:05:19;99824.97;;;23.20;34.66
28428;BME280;15662;49.128;8.520;2023-03-22T14:07:54;99830.56;;;23.28;34.60
28428;BME280;15662;49.128;8.520;2023-03-22T14:13:10;99824.41;;;23.47;34.17
28428;BME280;15662;49.128;8.520;2023-03-22T14:15:51;99808.78;;;23.51;34.22
28428;BME280;15662;49.128;8.520;2023-03-22T14:21:22;99802.91;;;23.66;34.17
28428;BME280;15662;49.128;8.520;2023-03-22T14:23:55;99801.19;;;23.65;34.06
28428;BME280;15662;49.128;8.520;2023-03-22T14:26:52;99798.50;;;23.75;33.39
28428;BME280;15662;49.128;8.520;2023-03-22T14:29:27;99800.94;;;23.78;33.71
28428;BME280;15662;49.128;8.520;2023-03-22T14:34:46;99789.00;;;23.81;33.25
28428;BME280;15662;49.128;8.520;2023-03-22T14:37:14;99789.84;;;23.81;33.24
28428;BME280;15662;49.128;8.520;2023-03-22T14:39:48;99787.56;;;23.86;33.09
28428;BME280;15662;49.128;8.520;2023-03-22T14:44:59;99783.44;;;23.82;32.62
28428;BME280;15662;49.128;8.520;2023-03-22T14:47:33;99779.16;;;23.80;32.50
28428;BME280;15662;49.128;8.520;2023-03-22T14:50:15;99788.94;;;23.71;32.14
28428;BME280;15662;49.128;8.520;2023-03-22T14:52:47;99786.09;;;23.73;32.44
28428;BME280;15662;49.128;8.520;2023-03-22T14:55:23;99784.41;;;23.72;32.47
28428;BME280;15662;49.128;8.520;2023-03-22T14:57:59;99792.78;;;23.68;32.59
28428;BME280;15662;49.128;8.520;2023-03-22T15:00:28;99780.63;;;23.63;32.79
28428;BME280;15662;49.128;8.520;2023-03-22T15:03:02;99790.22;;;23.67;32.76
28428;BME280;15662;49.128;8.520;2023-03-22T15:05:35;99780.91;;;23.60;32.48
28428;BME280;15662;49.128;8.520;2023-03-22T15:08:27;99780.47;;;23.55;32.12
28428;BME280;15662;49.128;8.520;2023-03-22T15:11:06;99774.88;;;23.47;32.04
28428;BME280;15662;49.128;8.520;2023-03-22T15:13:38;99781.41;;;23.44;32.18
28428;BME280;15662;49.128;8.520;2023-03-22T15:16:06;99773.84;;;23.38;32.05